UTA7775 USRO-VQPR
Flight info
| Callsign | UTA7775 |
|---|---|
| Flight time | N/A |
| Altitude | 37000 |
| Route | DCT |
| Aircraft | B738/M-SDE2E3FGHIRWXY/LB1 |
Departure
| Time | 2026-04-18 10:45 |
|---|---|
| Airport | Noyabrsk Airport (USRO) |
Arrival
| Time | N/A |
|---|---|
| Airport | Paro International Airport (VQPR) |
| Time | Latitude | Longitude | Altitude | Speed | Heading |
|---|---|---|---|---|---|
| 2026-04-18 10:10 | 63.18316 | 75.27308 | 455 ft | 0 kts | 204° |
| 2026-04-18 10:27 | 63.18315 | 75.27307 | 455 ft | 0 kts | 204° |
| 2026-04-18 10:27 | 63.18311 | 75.27303 | 455 ft | 1 kts | 204° |
| 2026-04-18 10:27 | 63.18304 | 75.27296 | 455 ft | 1 kts | 204° |
| 2026-04-18 10:27 | 63.18295 | 75.27287 | 455 ft | 2 kts | 204° |
| 2026-04-18 10:28 | 63.18276 | 75.27267 | 455 ft | 5 kts | 204° |
| 2026-04-18 10:28 | 63.18234 | 75.27225 | 454 ft | 9 kts | 204° |
| 2026-04-18 10:28 | 63.18167 | 75.27158 | 456 ft | 12 kts | 204° |
| 2026-04-18 10:28 | 63.18083 | 75.27073 | 456 ft | 2 kts | 204° |
| 2026-04-18 10:38 | 63.18083 | 75.27060 | 456 ft | 1 kts | 268° |
| 2026-04-18 10:38 | 63.18091 | 75.27057 | 456 ft | 1 kts | 356° |
| 2026-04-18 10:39 | 63.18109 | 75.27073 | 456 ft | 7 kts | 28° |
| 2026-04-18 10:39 | 63.18156 | 75.27133 | 456 ft | 8 kts | 31° |
| 2026-04-18 10:39 | 63.18163 | 75.27141 | 456 ft | 0 kts | 24° |
| 2026-04-18 10:39 | 63.18164 | 75.27142 | 456 ft | 1 kts | 24° |
| 2026-04-18 10:40 | 63.18199 | 75.27177 | 454 ft | 8 kts | 25° |
| 2026-04-18 10:40 | 63.18247 | 75.27226 | 456 ft | 8 kts | 10° |
| 2026-04-18 10:40 | 63.18288 | 75.27166 | 453 ft | 7 kts | 302° |
| 2026-04-18 10:40 | 63.18316 | 75.27038 | 454 ft | 11 kts | 295° |
| 2026-04-18 10:41 | 63.18359 | 75.26903 | 456 ft | 11 kts | 333° |
| 2026-04-18 10:41 | 63.18430 | 75.26939 | 456 ft | 12 kts | 28° |
| 2026-04-18 10:41 | 63.18530 | 75.27044 | 454 ft | 17 kts | 25° |
| 2026-04-18 10:41 | 63.18634 | 75.27151 | 454 ft | 16 kts | 25° |
| 2026-04-18 10:42 | 63.18733 | 75.27253 | 451 ft | 15 kts | 25° |
| 2026-04-18 10:42 | 63.18828 | 75.27351 | 453 ft | 15 kts | 25° |
| 2026-04-18 10:42 | 63.18919 | 75.27446 | 452 ft | 14 kts | 25° |
| 2026-04-18 10:42 | 63.19019 | 75.27548 | 450 ft | 16 kts | 25° |
| 2026-04-18 10:43 | 63.19119 | 75.27650 | 448 ft | 16 kts | 25° |
| 2026-04-18 10:43 | 63.19216 | 75.27748 | 449 ft | 15 kts | 25° |
| 2026-04-18 10:43 | 63.19300 | 75.27869 | 449 ft | 14 kts | 38° |
| 2026-04-18 10:43 | 63.19380 | 75.27987 | 450 ft | 14 kts | 349° |
| 2026-04-18 10:44 | 63.19362 | 75.27882 | 451 ft | 11 kts | 203° |
| 2026-04-18 10:44 | 63.19050 | 75.27572 | 450 ft | 89 kts | 205° |
| 2026-04-18 10:44 | 63.18272 | 75.26766 | 458 ft | 156 kts | 205° |
| 2026-04-18 10:44 | 63.17122 | 75.25597 | 686 ft | 199 kts | 204° |
| 2026-04-18 10:45 | 63.15691 | 75.24676 | 1142 ft | 227 kts | 185° |
| 2026-04-18 10:45 | 63.14049 | 75.24745 | 1692 ft | 242 kts | 169° |
| 2026-04-18 10:45 | 63.12437 | 75.25787 | 2007 ft | 232 kts | 153° |
| 2026-04-18 10:45 | 63.11032 | 75.27376 | 2023 ft | 221 kts | 144° |
| 2026-04-18 10:46 | 63.09755 | 75.29198 | 2028 ft | 220 kts | 143° |
| 2026-04-18 10:46 | 63.08386 | 75.31059 | 2241 ft | 242 kts | 147° |
| 2026-04-18 10:46 | 63.06896 | 75.32942 | 2890 ft | 249 kts | 148° |
| 2026-04-18 10:46 | 63.05371 | 75.34743 | 3741 ft | 250 kts | 150° |
| 2026-04-18 10:47 | 63.03803 | 75.36466 | 4494 ft | 253 kts | 152° |
| 2026-04-18 10:47 | 63.02220 | 75.38105 | 5199 ft | 257 kts | 152° |
| 2026-04-18 10:47 | 63.00572 | 75.39745 | 5919 ft | 260 kts | 154° |
| 2026-04-18 10:47 | 62.98905 | 75.41347 | 6622 ft | 263 kts | 154° |
| 2026-04-18 10:48 | 62.97215 | 75.42923 | 7308 ft | 265 kts | 155° |
| 2026-04-18 10:48 | 62.95499 | 75.44492 | 7912 ft | 271 kts | 155° |
| 2026-04-18 10:48 | 62.93740 | 75.46073 | 8538 ft | 275 kts | 156° |
| 2026-04-18 10:48 | 62.91946 | 75.47662 | 9135 ft | 281 kts | 158° |
| 2026-04-18 10:49 | 62.90131 | 75.49251 | 9862 ft | 282 kts | 159° |
| 2026-04-18 10:49 | 62.88277 | 75.50860 | 10295 ft | 293 kts | 159° |
| 2026-04-18 10:49 | 62.86305 | 75.52558 | 10436 ft | 313 kts | 160° |
| 2026-04-18 10:49 | 62.84253 | 75.54318 | 10787 ft | 325 kts | 160° |
| 2026-04-18 10:50 | 62.82119 | 75.56140 | 11279 ft | 333 kts | 160° |
| 2026-04-18 10:51 | 62.73615 | 75.63351 | 13738 ft | 344 kts | 161° |
| 2026-04-18 10:51 | 62.71367 | 75.65246 | 14263 ft | 348 kts | 161° |
| 2026-04-18 10:51 | 62.69107 | 75.67147 | 14889 ft | 348 kts | 161° |
| 2026-04-18 10:51 | 62.66839 | 75.69052 | 15506 ft | 350 kts | 160° |
| 2026-04-18 10:52 | 62.64552 | 75.70970 | 16002 ft | 354 kts | 160° |
| 2026-04-18 10:52 | 62.62240 | 75.72905 | 16523 ft | 358 kts | 161° |
| 2026-04-18 10:52 | 62.59932 | 75.74833 | 17079 ft | 361 kts | 161° |
| 2026-04-18 10:52 | 62.57579 | 75.76795 | 17649 ft | 363 kts | 161° |
| 2026-04-18 10:53 | 62.55211 | 75.78765 | 18188 ft | 366 kts | 161° |
| 2026-04-18 10:53 | 62.52817 | 75.80750 | 18656 ft | 370 kts | 161° |
| 2026-04-18 10:53 | 62.50406 | 75.82748 | 19112 ft | 373 kts | 161° |
| 2026-04-18 10:53 | 62.47971 | 75.84762 | 19564 ft | 376 kts | 161° |
| 2026-04-18 10:54 | 62.45513 | 75.86792 | 20010 ft | 379 kts | 161° |
| 2026-04-18 10:54 | 62.43040 | 75.88832 | 20456 ft | 382 kts | 161° |
| 2026-04-18 10:54 | 62.40545 | 75.90888 | 20894 ft | 385 kts | 161° |
| 2026-04-18 10:54 | 62.38023 | 75.92961 | 21330 ft | 389 kts | 161° |
| 2026-04-18 10:55 | 62.35492 | 75.95040 | 21766 ft | 392 kts | 161° |
| 2026-04-18 10:55 | 62.32964 | 75.97112 | 22186 ft | 395 kts | 161° |
| 2026-04-18 10:55 | 62.30391 | 75.99216 | 22591 ft | 398 kts | 161° |
| 2026-04-18 10:55 | 62.27796 | 76.01336 | 23052 ft | 399 kts | 161° |
| 2026-04-18 10:56 | 62.25256 | 76.03410 | 23999 ft | 386 kts | 161° |
| 2026-04-18 10:56 | 62.22738 | 76.05460 | 24371 ft | 388 kts | 161° |
| 2026-04-18 10:56 | 62.20164 | 76.07547 | 24403 ft | 400 kts | 161° |
| 2026-04-18 10:56 | 62.17531 | 76.09677 | 24489 ft | 410 kts | 161° |
| 2026-04-18 10:57 | 62.14842 | 76.11849 | 24641 ft | 416 kts | 161° |
| 2026-04-18 10:57 | 62.12122 | 76.14045 | 24942 ft | 419 kts | 162° |
| 2026-04-18 10:57 | 62.09389 | 76.16250 | 25241 ft | 422 kts | 162° |
| 2026-04-18 10:57 | 62.06640 | 76.18446 | 25673 ft | 420 kts | 162° |
| 2026-04-18 10:58 | 62.03911 | 76.20640 | 26068 ft | 420 kts | 162° |
| 2026-04-18 10:58 | 62.01150 | 76.22858 | 26278 ft | 425 kts | 162° |
| 2026-04-18 10:58 | 61.98370 | 76.25084 | 26512 ft | 429 kts | 162° |
| 2026-04-18 10:58 | 61.95571 | 76.27321 | 26795 ft | 431 kts | 163° |
| 2026-04-18 10:59 | 61.92755 | 76.29567 | 27090 ft | 433 kts | 163° |
| 2026-04-18 10:59 | 61.89958 | 76.31790 | 27347 ft | 436 kts | 163° |
| 2026-04-18 10:59 | 61.87113 | 76.34048 | 27603 ft | 438 kts | 163° |
| 2026-04-18 10:59 | 61.84248 | 76.36317 | 27831 ft | 441 kts | 164° |
| 2026-04-18 11:00 | 61.81364 | 76.38595 | 28021 ft | 445 kts | 164° |
| 2026-04-18 11:00 | 61.78457 | 76.40886 | 28249 ft | 447 kts | 164° |
| 2026-04-18 11:00 | 61.75532 | 76.43189 | 28523 ft | 449 kts | 164° |
| 2026-04-18 11:00 | 61.72601 | 76.45492 | 28758 ft | 451 kts | 164° |
| 2026-04-18 11:01 | 61.69645 | 76.47809 | 28998 ft | 454 kts | 165° |
| 2026-04-18 11:01 | 61.66682 | 76.50127 | 29217 ft | 456 kts | 165° |
| 2026-04-18 11:01 | 61.63699 | 76.52457 | 29455 ft | 458 kts | 165° |
| 2026-04-18 11:02 | 61.57687 | 76.57136 | 29890 ft | 463 kts | 165° |
| 2026-04-18 11:02 | 61.54661 | 76.59484 | 30103 ft | 464 kts | 165° |
| 2026-04-18 11:02 | 61.51631 | 76.61832 | 30351 ft | 464 kts | 165° |
| 2026-04-18 11:02 | 61.48604 | 76.64173 | 30633 ft | 463 kts | 165° |
| 2026-04-18 11:03 | 61.45587 | 76.66503 | 30893 ft | 463 kts | 165° |
| 2026-04-18 11:03 | 61.42562 | 76.68832 | 31099 ft | 463 kts | 165° |
| 2026-04-18 11:03 | 61.39538 | 76.71154 | 31314 ft | 463 kts | 165° |
| 2026-04-18 11:03 | 61.36514 | 76.73471 | 31557 ft | 463 kts | 165° |
| 2026-04-18 11:04 | 61.33488 | 76.75786 | 31793 ft | 462 kts | 165° |
| 2026-04-18 11:04 | 61.30463 | 76.78094 | 31998 ft | 463 kts | 165° |
| 2026-04-18 11:04 | 61.27445 | 76.80393 | 32124 ft | 463 kts | 166° |
| 2026-04-18 11:04 | 61.24406 | 76.82700 | 32261 ft | 465 kts | 166° |
| 2026-04-18 11:05 | 61.21367 | 76.85004 | 32466 ft | 465 kts | 166° |
| 2026-04-18 11:05 | 61.18330 | 76.87304 | 32721 ft | 464 kts | 166° |
| 2026-04-18 11:05 | 61.15346 | 76.89559 | 32931 ft | 463 kts | 166° |
| 2026-04-18 11:05 | 61.12317 | 76.91844 | 33107 ft | 463 kts | 166° |
| 2026-04-18 11:06 | 61.09285 | 76.94124 | 33278 ft | 463 kts | 166° |
| 2026-04-18 11:06 | 61.06256 | 76.96398 | 33478 ft | 463 kts | 166° |
| 2026-04-18 11:06 | 61.03224 | 76.98669 | 33675 ft | 462 kts | 166° |
| 2026-04-18 11:06 | 61.00202 | 77.00929 | 33806 ft | 463 kts | 166° |
| 2026-04-18 11:07 | 60.97176 | 77.03187 | 33932 ft | 463 kts | 166° |
| 2026-04-18 11:07 | 60.94137 | 77.05450 | 34073 ft | 463 kts | 166° |
| 2026-04-18 11:07 | 60.91114 | 77.07696 | 34227 ft | 463 kts | 166° |
| 2026-04-18 11:07 | 60.88083 | 77.09945 | 34372 ft | 462 kts | 166° |
| 2026-04-18 11:08 | 60.85054 | 77.12187 | 34487 ft | 463 kts | 166° |
| 2026-04-18 11:08 | 60.82025 | 77.14423 | 34596 ft | 463 kts | 166° |
| 2026-04-18 11:08 | 60.78993 | 77.16658 | 34732 ft | 463 kts | 166° |
| 2026-04-18 11:08 | 60.75970 | 77.18882 | 34875 ft | 462 kts | 166° |
| 2026-04-18 11:09 | 60.72946 | 77.21104 | 35028 ft | 461 kts | 166° |
| 2026-04-18 11:09 | 60.69932 | 77.23313 | 35093 ft | 461 kts | 166° |
| 2026-04-18 11:09 | 60.64898 | 77.26990 | 35234 ft | 462 kts | 166° |
| 2026-04-18 11:10 | 60.61872 | 77.29195 | 35365 ft | 461 kts | 166° |
| 2026-04-18 11:10 | 60.58852 | 77.31393 | 35481 ft | 461 kts | 166° |
| 2026-04-18 11:10 | 60.52809 | 77.35775 | 35673 ft | 461 kts | 166° |
| 2026-04-18 11:11 | 60.46770 | 77.40136 | 35762 ft | 462 kts | 166° |
| 2026-04-18 11:11 | 60.40707 | 77.44498 | 35771 ft | 462 kts | 166° |
| 2026-04-18 11:12 | 60.34641 | 77.48845 | 35760 ft | 463 kts | 166° |
| 2026-04-18 11:12 | 60.28551 | 77.53192 | 35768 ft | 464 kts | 166° |
| 2026-04-18 11:13 | 60.22462 | 77.57521 | 35757 ft | 465 kts | 166° |
| 2026-04-18 11:13 | 60.16357 | 77.61845 | 35709 ft | 465 kts | 167° |
| 2026-04-18 11:14 | 60.10295 | 77.66124 | 35743 ft | 464 kts | 167° |
| 2026-04-18 11:14 | 60.04209 | 77.70400 | 35748 ft | 463 kts | 167° |
| 2026-04-18 11:15 | 59.98126 | 77.74658 | 35751 ft | 463 kts | 167° |
| 2026-04-18 11:15 | 59.92049 | 77.78895 | 35750 ft | 462 kts | 167° |
| 2026-04-18 11:16 | 59.85994 | 77.83102 | 35737 ft | 460 kts | 167° |
| 2026-04-18 11:16 | 59.79951 | 77.87282 | 35739 ft | 459 kts | 167° |
| 2026-04-18 11:17 | 59.73921 | 77.91437 | 35760 ft | 458 kts | 167° |
| 2026-04-18 11:17 | 59.67898 | 77.95571 | 35744 ft | 458 kts | 168° |
| 2026-04-18 11:18 | 59.61878 | 77.99688 | 35695 ft | 458 kts | 168° |
| 2026-04-18 11:18 | 59.55866 | 78.03785 | 35745 ft | 457 kts | 168° |
| 2026-04-18 11:19 | 59.49858 | 78.07862 | 35763 ft | 457 kts | 168° |
| 2026-04-18 11:19 | 59.43838 | 78.11931 | 35758 ft | 458 kts | 168° |
| 2026-04-18 11:20 | 59.37842 | 78.15969 | 35764 ft | 459 kts | 168° |
| 2026-04-18 11:20 | 59.31800 | 78.20025 | 35749 ft | 459 kts | 169° |
| 2026-04-18 11:21 | 59.25755 | 78.24067 | 35753 ft | 460 kts | 169° |
| 2026-04-18 11:21 | 59.19700 | 78.28100 | 35766 ft | 461 kts | 169° |
| 2026-04-18 11:22 | 59.13619 | 78.32135 | 35770 ft | 462 kts | 169° |
| 2026-04-18 11:22 | 59.07525 | 78.36164 | 35714 ft | 463 kts | 169° |
| 2026-04-18 11:23 | 59.01435 | 78.40177 | 35764 ft | 462 kts | 169° |
| 2026-04-18 11:23 | 58.95337 | 78.44178 | 35773 ft | 463 kts | 169° |
| 2026-04-18 11:24 | 58.89219 | 78.48177 | 35774 ft | 464 kts | 169° |
| 2026-04-18 11:24 | 58.83087 | 78.52170 | 35776 ft | 465 kts | 169° |
| 2026-04-18 11:25 | 58.76962 | 78.56146 | 35779 ft | 465 kts | 169° |
| 2026-04-18 11:25 | 58.70833 | 78.60109 | 35779 ft | 464 kts | 169° |
| 2026-04-18 11:26 | 58.64712 | 78.64052 | 35787 ft | 464 kts | 169° |
| 2026-04-18 11:26 | 58.58592 | 78.67980 | 35786 ft | 464 kts | 169° |
| 2026-04-18 11:27 | 58.52483 | 78.71886 | 35746 ft | 462 kts | 169° |
| 2026-04-18 11:27 | 58.46432 | 78.75742 | 35772 ft | 461 kts | 169° |
| 2026-04-18 11:28 | 58.40362 | 78.79594 | 35791 ft | 459 kts | 169° |
| 2026-04-18 11:28 | 58.34294 | 78.83430 | 35786 ft | 459 kts | 169° |
| 2026-04-18 11:29 | 58.28241 | 78.87243 | 35794 ft | 458 kts | 169° |
| 2026-04-18 11:29 | 58.22199 | 78.91038 | 35792 ft | 456 kts | 170° |
| 2026-04-18 11:30 | 58.16162 | 78.94812 | 35796 ft | 457 kts | 170° |
| 2026-04-18 11:30 | 58.10104 | 78.98586 | 35811 ft | 458 kts | 170° |
| 2026-04-18 11:31 | 58.04039 | 79.02351 | 35810 ft | 460 kts | 170° |
| 2026-04-18 11:31 | 57.97950 | 79.06118 | 35794 ft | 462 kts | 170° |
| 2026-04-18 11:32 | 57.91828 | 79.09892 | 35798 ft | 464 kts | 170° |
| 2026-04-18 11:32 | 57.85677 | 79.13672 | 35816 ft | 465 kts | 170° |
| 2026-04-18 11:33 | 57.79511 | 79.17448 | 35811 ft | 467 kts | 170° |
| 2026-04-18 11:33 | 57.73363 | 79.21200 | 35772 ft | 467 kts | 170° |
| 2026-04-18 11:34 | 57.67192 | 79.24954 | 35821 ft | 466 kts | 170° |
| 2026-04-18 11:34 | 57.61015 | 79.28696 | 35831 ft | 466 kts | 170° |
| 2026-04-18 11:35 | 57.54851 | 79.32416 | 35824 ft | 466 kts | 170° |
| 2026-04-18 11:35 | 57.48691 | 79.36121 | 35828 ft | 464 kts | 170° |
| 2026-04-18 11:36 | 57.42549 | 79.39804 | 35837 ft | 462 kts | 170° |
| 2026-04-18 11:36 | 57.36436 | 79.43455 | 35843 ft | 461 kts | 170° |
| 2026-04-18 11:37 | 57.30337 | 79.47083 | 35846 ft | 460 kts | 170° |
| 2026-04-18 11:37 | 57.24250 | 79.50692 | 35849 ft | 459 kts | 170° |
| 2026-04-18 11:38 | 57.18185 | 79.54275 | 35841 ft | 457 kts | 170° |
| 2026-04-18 11:38 | 57.12125 | 79.57844 | 35844 ft | 457 kts | 170° |
| 2026-04-18 11:39 | 57.06067 | 79.61398 | 35857 ft | 457 kts | 170° |
| 2026-04-18 11:39 | 57.00005 | 79.64942 | 35860 ft | 458 kts | 170° |
| 2026-04-18 11:40 | 56.97377 | 79.66474 | 35863 ft | 458 kts | 170° |